sensor_id;sensor_type;location;lat;lon;timestamp;pressure;altitude;pressure_sealevel;temperature;humidity
55373;BME280;41249;47.838;16.490;2022-12-20T00:01:22;100705.16;;;-5.85;95.31
55373;BME280;41249;47.838;16.490;2022-12-20T00:03:50;100713.84;;;-5.83;95.65
55373;BME280;41249;47.838;16.490;2022-12-20T00:06:18;100698.81;;;-5.69;95.43
55373;BME280;41249;47.838;16.490;2022-12-20T00:08:45;100699.16;;;-5.87;95.80
55373;BME280;41249;47.838;16.490;2022-12-20T00:11:12;100702.69;;;-5.87;95.35
55373;BME280;41249;47.838;16.490;2022-12-20T00:13:39;100703.22;;;-5.90;94.84
55373;BME280;41249;47.838;16.490;2022-12-20T00:16:11;100700.25;;;-5.88;94.81
55373;BME280;41249;47.838;16.490;2022-12-20T00:18:39;100700.91;;;-5.76;95.24
55373;BME280;41249;47.838;16.490;2022-12-20T00:21:09;100698.25;;;-5.71;95.02
55373;BME280;41249;47.838;16.490;2022-12-20T00:23:37;100697.22;;;-5.70;95.11
55373;BME280;41249;47.838;16.490;2022-12-20T00:26:06;100699.22;;;-5.82;94.81
55373;BME280;41249;47.838;16.490;2022-12-20T00:28:35;100701.47;;;-5.74;94.96
55373;BME280;41249;47.838;16.490;2022-12-20T00:31:02;100700.97;;;-5.71;94.66
55373;BME280;41249;47.838;16.490;2022-12-20T00:33:30;100692.31;;;-5.73;94.99
55373;BME280;41249;47.838;16.490;2022-12-20T00:35:57;100690.16;;;-5.71;95.06
55373;BME280;41249;47.838;16.490;2022-12-20T00:38:24;100692.81;;;-5.76;95.26
55373;BME280;41249;47.838;16.490;2022-12-20T00:43:31;100693.25;;;-5.84;95.03
55373;BME280;41249;47.838;16.490;2022-12-20T00:45:59;100679.75;;;-5.84;94.76
55373;BME280;41249;47.838;16.490;2022-12-20T00:48:27;100703.63;;;-5.76;95.41
55373;BME280;41249;47.838;16.490;2022-12-20T00:51:03;100690.09;;;-5.76;95.27
55373;BME280;41249;47.838;16.490;2022-12-20T00:53:31;100689.28;;;-5.77;95.86
55373;BME280;41249;47.838;16.490;2022-12-20T00:55:58;100694.97;;;-5.78;95.53
55373;BME280;41249;47.838;16.490;2022-12-20T00:58:25;100691.16;;;-5.77;95.58
55373;BME280;41249;47.838;16.490;2022-12-20T01:00:52;100703.78;;;-5.61;95.51
55373;BME280;41249;47.838;16.490;2022-12-20T01:03:23;100685.56;;;-5.71;95.08
55373;BME280;41249;47.838;16.490;2022-12-20T01:05:59;100691.88;;;-5.60;95.38
55373;BME280;41249;47.838;16.490;2022-12-20T01:08:30;100692.16;;;-5.56;95.84
55373;BME280;41249;47.838;16.490;2022-12-20T01:11:05;100685.16;;;-5.57;95.28
55373;BME280;41249;47.838;16.490;2022-12-20T01:13:34;100686.44;;;-5.65;95.22
55373;BME280;41249;47.838;16.490;2022-12-20T01:16:10;100688.03;;;-5.64;95.41
55373;BME280;41249;47.838;16.490;2022-12-20T01:18:37;100690.47;;;-5.68;95.54
55373;BME280;41249;47.838;16.490;2022-12-20T01:21:07;100691.25;;;-5.67;95.37
55373;BME280;41249;47.838;16.490;2022-12-20T01:23:34;100685.38;;;-5.59;95.56
55373;BME280;41249;47.838;16.490;2022-12-20T01:26:03;100687.00;;;-5.63;95.68
55373;BME280;41249;47.838;16.490;2022-12-20T01:28:31;100680.53;;;-5.57;95.59
55373;BME280;41249;47.838;16.490;2022-12-20T01:30:59;100693.25;;;-5.57;95.43
55373;BME280;41249;47.838;16.490;2022-12-20T01:33:26;100689.19;;;-5.60;95.39
55373;BME280;41249;47.838;16.490;2022-12-20T01:35:56;100692.69;;;-5.59;95.47
55373;BME280;41249;47.838;16.490;2022-12-20T01:38:26;100697.91;;;-5.53;95.59
55373;BME280;41249;47.838;16.490;2022-12-20T01:40:53;100687.59;;;-5.56;95.46
55373;BME280;41249;47.838;16.490;2022-12-20T01:43:20;100684.97;;;-5.46;95.52
55373;BME280;41249;47.838;16.490;2022-12-20T01:45:47;100681.16;;;-5.50;95.50
55373;BME280;41249;47.838;16.490;2022-12-20T01:48:19;100673.06;;;-5.45;95.64
55373;BME280;41249;47.838;16.490;2022-12-20T01:50:47;100669.28;;;-5.44;95.58
55373;BME280;41249;47.838;16.490;2022-12-20T01:53:17;100673.09;;;-5.40;96.04
55373;BME280;41249;47.838;16.490;2022-12-20T01:55:45;100660.31;;;-5.49;95.70
55373;BME280;41249;47.838;16.490;2022-12-20T01:58:15;100657.63;;;-5.44;95.65
55373;BME280;41249;47.838;16.490;2022-12-20T02:00:43;100648.22;;;-5.37;95.86
55373;BME280;41249;47.838;16.490;2022-12-20T02:03:11;100644.69;;;-5.37;95.53
55373;BME280;41249;47.838;16.490;2022-12-20T02:05:42;100645.84;;;-5.28;95.55
55373;BME280;41249;47.838;16.490;2022-12-20T02:08:13;100642.00;;;-5.37;95.82
55373;BME280;41249;47.838;16.490;2022-12-20T02:11:07;100641.41;;;-5.44;95.36
55373;BME280;41249;47.838;16.490;2022-12-20T02:13:44;100630.31;;;-5.48;95.30
55373;BME280;41249;47.838;16.490;2022-12-20T02:16:21;100632.47;;;-5.50;95.54
55373;BME280;41249;47.838;16.490;2022-12-20T02:18:59;100640.84;;;-5.46;95.36
55373;BME280;41249;47.838;16.490;2022-12-20T02:21:41;100639.56;;;-5.39;95.57
55373;BME280;41249;47.838;16.490;2022-12-20T02:30:14;100647.47;;;-5.27;95.49
55373;BME280;41249;47.838;16.490;2022-12-20T02:32:49;100636.09;;;-5.29;95.32
55373;BME280;41249;47.838;16.490;2022-12-20T02:35:21;100636.41;;;-5.26;95.18
55373;BME280;41249;47.838;16.490;2022-12-20T02:37:54;100621.78;;;-5.25;94.98
55373;BME280;41249;47.838;16.490;2022-12-20T02:40:33;100611.22;;;-5.26;95.21
55373;BME280;41249;47.838;16.490;2022-12-20T02:43:04;100602.28;;;-5.27;95.64
55373;BME280;41249;47.838;16.490;2022-12-20T02:45:51;100612.81;;;-5.35;95.22
55373;BME280;41249;47.838;16.490;2022-12-20T02:48:20;100613.66;;;-5.25;95.66
55373;BME280;41249;47.838;16.490;2022-12-20T02:50:50;100631.03;;;-5.21;95.28
55373;BME280;41249;47.838;16.490;2022-12-20T02:53:19;100629.41;;;-5.17;95.40
55373;BME280;41249;47.838;16.490;2022-12-20T02:55:51;100629.41;;;-5.17;95.71
55373;BME280;41249;47.838;16.490;2022-12-20T02:58:32;100622.06;;;-5.26;95.08
55373;BME280;41249;47.838;16.490;2022-12-20T03:01:03;100619.63;;;-5.28;95.07
55373;BME280;41249;47.838;16.490;2022-12-20T03:03:32;100620.72;;;-5.24;95.45
55373;BME280;41249;47.838;16.490;2022-12-20T03:06:00;100626.13;;;-5.24;95.07
55373;BME280;41249;47.838;16.490;2022-12-20T03:08:27;100606.38;;;-5.19;95.80
55373;BME280;41249;47.838;16.490;2022-12-20T03:10:54;100611.31;;;-5.11;95.12
55373;BME280;41249;47.838;16.490;2022-12-20T03:13:23;100624.53;;;-5.15;95.16
55373;BME280;41249;47.838;16.490;2022-12-20T03:15:50;100612.66;;;-5.14;95.71
55373;BME280;41249;47.838;16.490;2022-12-20T03:18:17;100609.84;;;-5.29;95.00
55373;BME280;41249;47.838;16.490;2022-12-20T03:20:44;100612.00;;;-5.31;95.87
55373;BME280;41249;47.838;16.490;2022-12-20T03:23:10;100608.00;;;-5.23;95.86
55373;BME280;41249;47.838;16.490;2022-12-20T03:25:37;100611.28;;;-5.16;95.43
55373;BME280;41249;47.838;16.490;2022-12-20T03:28:04;100619.91;;;-5.19;95.41
55373;BME280;41249;47.838;16.490;2022-12-20T03:30:30;100607.66;;;-5.32;95.02
55373;BME280;41249;47.838;16.490;2022-12-20T03:32:57;100606.88;;;-5.27;95.74
55373;BME280;41249;47.838;16.490;2022-12-20T03:35:23;100605.25;;;-5.28;95.66
55373;BME280;41249;47.838;16.490;2022-12-20T03:37:50;100594.66;;;-5.35;95.32
55373;BME280;41249;47.838;16.490;2022-12-20T03:40:17;100596.66;;;-5.20;95.36
55373;BME280;41249;47.838;16.490;2022-12-20T03:42:43;100599.31;;;-5.30;95.50
55373;BME280;41249;47.838;16.490;2022-12-20T03:45:10;100597.34;;;-5.35;95.51
55373;BME280;41249;47.838;16.490;2022-12-20T03:47:36;100599.50;;;-5.37;95.10
55373;BME280;41249;47.838;16.490;2022-12-20T03:50:05;100585.19;;;-5.32;95.56
55373;BME280;41249;47.838;16.490;2022-12-20T03:52:32;100603.38;;;-5.28;95.08
55373;BME280;41249;47.838;16.490;2022-12-20T03:54:59;100591.97;;;-5.30;95.28
55373;BME280;41249;47.838;16.490;2022-12-20T03:57:25;100599.81;;;-5.33;95.17
55373;BME280;41249;47.838;16.490;2022-12-20T03:59:52;100585.84;;;-5.20;95.54
55373;BME280;41249;47.838;16.490;2022-12-20T04:02:20;100594.22;;;-5.17;95.48
55373;BME280;41249;47.838;16.490;2022-12-20T04:04:48;100600.50;;;-5.06;96.43
55373;BME280;41249;47.838;16.490;2022-12-20T04:07:15;100583.41;;;-5.17;95.52
55373;BME280;41249;47.838;16.490;2022-12-20T04:09:41;100589.06;;;-5.23;95.60
55373;BME280;41249;47.838;16.490;2022-12-20T04:12:08;100592.78;;;-5.29;95.39
55373;BME280;41249;47.838;16.490;2022-12-20T04:14:35;100587.44;;;-5.19;96.01
55373;BME280;41249;47.838;16.490;2022-12-20T04:17:03;100587.38;;;-5.29;96.02
55373;BME280;41249;47.838;16.490;2022-12-20T04:19:29;100594.47;;;-5.23;96.27
55373;BME280;41249;47.838;16.490;2022-12-20T04:21:56;100589.88;;;-5.23;96.23
55373;BME280;41249;47.838;16.490;2022-12-20T04:24:31;100602.28;;;-5.27;96.09
55373;BME280;41249;47.838;16.490;2022-12-20T04:26:57;100588.22;;;-5.24;96.30
55373;BME280;41249;47.838;16.490;2022-12-20T04:29:24;100592.03;;;-5.20;96.11
55373;BME280;41249;47.838;16.490;2022-12-20T04:31:50;100599.41;;;-5.15;95.87
55373;BME280;41249;47.838;16.490;2022-12-20T04:34:17;100592.63;;;-5.18;96.24
55373;BME280;41249;47.838;16.490;2022-12-20T04:36:44;100585.31;;;-5.12;96.16
55373;BME280;41249;47.838;16.490;2022-12-20T04:39:10;100581.22;;;-5.15;96.22
55373;BME280;41249;47.838;16.490;2022-12-20T04:41:37;100589.13;;;-5.13;96.53
55373;BME280;41249;47.838;16.490;2022-12-20T04:44:04;100588.06;;;-5.02;96.29
55373;BME280;41249;47.838;16.490;2022-12-20T04:46:30;100581.28;;;-5.05;96.40
55373;BME280;41249;47.838;16.490;2022-12-20T04:48:57;100580.25;;;-4.98;95.87
55373;BME280;41249;47.838;16.490;2022-12-20T04:51:26;100584.56;;;-5.03;96.07
55373;BME280;41249;47.838;16.490;2022-12-20T04:53:53;100582.94;;;-4.98;95.75
55373;BME280;41249;47.838;16.490;2022-12-20T04:56:25;100588.00;;;-5.12;95.92
55373;BME280;41249;47.838;16.490;2022-12-20T04:58:55;100578.56;;;-5.10;96.44
55373;BME280;41249;47.838;16.490;2022-12-20T05:01:22;100576.38;;;-5.18;95.85
55373;BME280;41249;47.838;16.490;2022-12-20T05:03:49;100587.13;;;-5.28;95.94
55373;BME280;41249;47.838;16.490;2022-12-20T05:06:17;100590.34;;;-5.36;95.83
55373;BME280;41249;47.838;16.490;2022-12-20T05:08:43;100595.84;;;-5.21;96.12
55373;BME280;41249;47.838;16.490;2022-12-20T05:11:10;100593.16;;;-5.16;96.51
55373;BME280;41249;47.838;16.490;2022-12-20T05:13:37;100589.63;;;-5.16;95.87
55373;BME280;41249;47.838;16.490;2022-12-20T05:16:04;100591.28;;;-5.15;96.17
55373;BME280;41249;47.838;16.490;2022-12-20T05:18:31;100584.22;;;-5.16;95.98
55373;BME280;41249;47.838;16.490;2022-12-20T05:20:59;100581.00;;;-5.13;96.05
55373;BME280;41249;47.838;16.490;2022-12-20T05:23:45;100573.41;;;-5.11;95.96
55373;BME280;41249;47.838;16.490;2022-12-20T05:26:34;100568.03;;;-5.06;96.29
55373;BME280;41249;47.838;16.490;2022-12-20T05:29:02;100561.31;;;-4.93;95.87
55373;BME280;41249;47.838;16.490;2022-12-20T05:31:29;100562.91;;;-4.97;95.96
55373;BME280;41249;47.838;16.490;2022-12-20T05:33:57;100562.09;;;-5.03;95.95
55373;BME280;41249;47.838;16.490;2022-12-20T05:36:24;100558.28;;;-5.02;96.20
55373;BME280;41249;47.838;16.490;2022-12-20T05:38:50;100562.09;;;-5.03;95.75
55373;BME280;41249;47.838;16.490;2022-12-20T05:41:17;100564.44;;;-5.17;96.00
55373;BME280;41249;47.838;16.490;2022-12-20T05:43:43;100566.97;;;-5.00;96.66
55373;BME280;41249;47.838;16.490;2022-12-20T05:46:10;100563.22;;;-4.89;95.88
55373;BME280;41249;47.838;16.490;2022-12-20T05:48:36;100563.22;;;-4.89;95.37
55373;BME280;41249;47.838;16.490;2022-12-20T05:51:03;100566.47;;;-4.87;95.90
55373;BME280;41249;47.838;16.490;2022-12-20T05:53:30;100573.50;;;-4.96;95.90
55373;BME280;41249;47.838;16.490;2022-12-20T05:55:57;100571.56;;;-5.01;95.90
55373;BME280;41249;47.838;16.490;2022-12-20T05:58:24;100562.91;;;-5.03;95.99
55373;BME280;41249;47.838;16.490;2022-12-20T06:00:50;100573.75;;;-5.03;96.08
55373;BME280;41249;47.838;16.490;2022-12-20T06:03:17;100562.34;;;-5.05;96.20
55373;BME280;41249;47.838;16.490;2022-12-20T06:05:44;100559.66;;;-4.94;96.16
55373;BME280;41249;47.838;16.490;2022-12-20T06:08:11;100563.56;;;-4.75;96.30
55373;BME280;41249;47.838;16.490;2022-12-20T06:10:39;100569.47;;;-4.83;96.35
55373;BME280;41249;47.838;16.490;2022-12-20T06:13:08;100569.47;;;-4.88;96.25
55373;BME280;41249;47.838;16.490;2022-12-20T06:15:35;100566.75;;;-4.88;95.35
55373;BME280;41249;47.838;16.490;2022-12-20T06:18:02;100574.91;;;-4.83;96.58
55373;BME280;41249;47.838;16.490;2022-12-20T06:20:29;100571.38;;;-4.84;95.62
55373;BME280;41249;47.838;16.490;2022-12-20T06:22:55;100574.56;;;-4.92;95.37
55373;BME280;41249;47.838;16.490;2022-12-20T06:25:22;100570.75;;;-5.01;95.59
55373;BME280;41249;47.838;16.490;2022-12-20T06:27:48;100573.38;;;-5.16;95.62
55373;BME280;41249;47.838;16.490;2022-12-20T06:30:16;100575.69;;;-5.40;95.80
55373;BME280;41249;47.838;16.490;2022-12-20T06:32:43;100584.31;;;-5.48;95.76
55373;BME280;41249;47.838;16.490;2022-12-20T06:35:09;100572.22;;;-5.35;96.13
55373;BME280;41249;47.838;16.490;2022-12-20T06:37:36;100570.38;;;-5.20;95.59
55373;BME280;41249;47.838;16.490;2022-12-20T06:40:10;100570.28;;;-4.88;95.93
55373;BME280;41249;47.838;16.490;2022-12-20T06:42:37;100573.78;;;-4.82;95.58
55373;BME280;41249;47.838;16.490;2022-12-20T06:45:04;100570.81;;;-4.86;96.14
55373;BME280;41249;47.838;16.490;2022-12-20T06:47:31;100573.22;;;-4.94;96.06
55373;BME280;41249;47.838;16.490;2022-12-20T06:49:58;100573.25;;;-4.84;96.19
55373;BME280;41249;47.838;16.490;2022-12-20T06:52:24;100578.63;;;-4.94;95.78
55373;BME280;41249;47.838;16.490;2022-12-20T06:54:51;100590.75;;;-5.07;96.31
55373;BME280;41249;47.838;16.490;2022-12-20T06:57:18;100580.28;;;-4.93;96.22
55373;BME280;41249;47.838;16.490;2022-12-20T06:59:45;100574.31;;;-4.95;95.94
55373;BME280;41249;47.838;16.490;2022-12-20T07:02:11;100576.72;;;-4.99;95.82
55373;BME280;41249;47.838;16.490;2022-12-20T07:04:39;100562.38;;;-4.94;96.16
55373;BME280;41249;47.838;16.490;2022-12-20T07:07:06;100572.19;;;-4.83;96.26
55373;BME280;41249;47.838;16.490;2022-12-20T07:09:33;100568.66;;;-4.84;96.31
55373;BME280;41249;47.838;16.490;2022-12-20T07:12:00;100570.81;;;-4.91;96.06
55373;BME280;41249;47.838;16.490;2022-12-20T07:14:26;100566.78;;;-4.83;96.36
55373;BME280;41249;47.838;16.490;2022-12-20T07:16:53;100567.31;;;-4.81;96.13
55373;BME280;41249;47.838;16.490;2022-12-20T07:19:20;100573.28;;;-4.79;95.91
55373;BME280;41249;47.838;16.490;2022-12-20T07:21:47;100562.41;;;-4.89;96.64
55373;BME280;41249;47.838;16.490;2022-12-20T07:24:14;100557.47;;;-4.97;96.73
55373;BME280;41249;47.838;16.490;2022-12-20T07:26:43;100570.25;;;-4.93;95.73
55373;BME280;41249;47.838;16.490;2022-12-20T07:29:11;100565.09;;;-4.94;96.01
55373;BME280;41249;47.838;16.490;2022-12-20T07:31:41;100567.28;;;-4.91;96.00
55373;BME280;41249;47.838;16.490;2022-12-20T07:34:09;100575.13;;;-4.85;96.49
55373;BME280;41249;47.838;16.490;2022-12-20T07:36:36;100569.16;;;-4.92;96.70
55373;BME280;41249;47.838;16.490;2022-12-20T07:39:02;100570.53;;;-4.89;96.38
55373;BME280;41249;47.838;16.490;2022-12-20T07:41:29;100587.91;;;-4.85;95.84
55373;BME280;41249;47.838;16.490;2022-12-20T07:43:56;100587.91;;;-4.85;96.39
55373;BME280;41249;47.838;16.490;2022-12-20T07:46:24;100589.81;;;-4.76;96.26
55373;BME280;41249;47.838;16.490;2022-12-20T07:48:51;100582.97;;;-4.93;96.23
55373;BME280;41249;47.838;16.490;2022-12-20T07:51:30;100576.50;;;-4.82;96.72
55373;BME280;41249;47.838;16.490;2022-12-20T07:54:03;100558.13;;;-4.75;96.64
55373;BME280;41249;47.838;16.490;2022-12-20T07:56:36;100556.19;;;-4.80;95.76
55373;BME280;41249;47.838;16.490;2022-12-20T07:59:08;100567.38;;;-4.66;96.61
55373;BME280;41249;47.838;16.490;2022-12-20T08:01:37;100549.72;;;-4.74;96.49
55373;BME280;41249;47.838;16.490;2022-12-20T08:04:10;100551.88;;;-4.81;96.25
55373;BME280;41249;47.838;16.490;2022-12-20T08:06:38;100546.19;;;-4.79;96.47
55373;BME280;41249;47.838;16.490;2022-12-20T08:09:07;100553.50;;;-4.80;96.53
55373;BME280;41249;47.838;16.490;2022-12-20T08:11:39;100564.31;;;-4.85;96.16
55373;BME280;41249;47.838;16.490;2022-12-20T08:14:07;100567.84;;;-4.79;96.21
55373;BME280;41249;47.838;16.490;2022-12-20T08:16:34;100565.19;;;-4.69;95.90
55373;BME280;41249;47.838;16.490;2022-12-20T08:19:01;100545.72;;;-4.61;96.31
55373;BME280;41249;47.838;16.490;2022-12-20T08:21:29;100548.16;;;-4.55;96.31
55373;BME280;41249;47.838;16.490;2022-12-20T08:23:56;100541.66;;;-4.59;96.37
55373;BME280;41249;47.838;16.490;2022-12-20T08:26:22;100547.88;;;-4.58;96.83
55373;BME280;41249;47.838;16.490;2022-12-20T08:28:50;100543.28;;;-4.58;95.84
55373;BME280;41249;47.838;16.490;2022-12-20T08:31:16;100540.56;;;-4.48;96.91
55373;BME280;41249;47.838;16.490;2022-12-20T08:33:43;100537.31;;;-4.55;96.52
55373;BME280;41249;47.838;16.490;2022-12-20T08:36:12;100526.75;;;-4.51;96.38
55373;BME280;41249;47.838;16.490;2022-12-20T08:38:39;100534.84;;;-4.71;95.99
55373;BME280;41249;47.838;16.490;2022-12-20T08:41:08;100540.28;;;-4.66;95.99
55373;BME280;41249;47.838;16.490;2022-12-20T08:43:37;100541.38;;;-4.52;96.76
55373;BME280;41249;47.838;16.490;2022-12-20T08:46:05;100544.38;;;-4.54;96.57
55373;BME280;41249;47.838;16.490;2022-12-20T08:48:32;100546.50;;;-4.66;96.35
55373;BME280;41249;47.838;16.490;2022-12-20T08:51:04;100539.47;;;-4.62;96.78
55373;BME280;41249;47.838;16.490;2022-12-20T08:53:32;100534.34;;;-4.53;96.62
55373;BME280;41249;47.838;16.490;2022-12-20T08:56:15;100522.41;;;-4.57;95.92
55373;BME280;41249;47.838;16.490;2022-12-20T08:58:43;100510.47;;;-4.61;96.34
55373;BME280;41249;47.838;16.490;2022-12-20T09:01:13;100505.59;;;-4.64;96.21
55373;BME280;41249;47.838;16.490;2022-12-20T09:03:41;100521.34;;;-4.51;96.72
55373;BME280;41249;47.838;16.490;2022-12-20T09:06:17;100520.81;;;-4.48;95.86
55373;BME280;41249;47.838;16.490;2022-12-20T09:08:44;100512.94;;;-4.45;95.92
55373;BME280;41249;47.838;16.490;2022-12-20T09:11:15;100514.28;;;-4.52;96.02
55373;BME280;41249;47.838;16.490;2022-12-20T09:13:43;100521.56;;;-4.73;95.73
55373;BME280;41249;47.838;16.490;2022-12-20T09:16:12;100519.66;;;-4.67;95.96
55373;BME280;41249;47.838;16.490;2022-12-20T09:18:40;100516.97;;;-4.67;96.07
55373;BME280;41249;47.838;16.490;2022-12-20T09:21:08;100505.06;;;-4.56;96.68
55373;BME280;41249;47.838;16.490;2022-12-20T09:23:35;100511.56;;;-4.57;95.88
55373;BME280;41249;47.838;16.490;2022-12-20T09:26:04;100500.19;;;-4.59;95.56
55373;BME280;41249;47.838;16.490;2022-12-20T09:28:32;100504.00;;;-4.60;95.82
55373;BME280;41249;47.838;16.490;2022-12-20T09:30:59;100503.38;;;-4.77;96.33
55373;BME280;41249;47.838;16.490;2022-12-20T09:33:27;100492.31;;;-4.76;95.60
55373;BME280;41249;47.838;16.490;2022-12-20T09:35:54;100506.44;;;-4.59;95.70
55373;BME280;41249;47.838;16.490;2022-12-20T09:38:20;100508.88;;;-4.42;96.05
55373;BME280;41249;47.838;16.490;2022-12-20T09:40:50;100515.94;;;-4.36;96.06
55373;BME280;41249;47.838;16.490;2022-12-20T09:43:17;100505.09;;;-4.41;96.14
55373;BME280;41249;47.838;16.490;2022-12-20T09:45:47;100507.28;;;-4.43;95.79
55373;BME280;41249;47.838;16.490;2022-12-20T09:48:21;100508.63;;;-4.46;96.07
55373;BME280;41249;47.838;16.490;2022-12-20T09:57:31;100515.13;;;-4.47;95.80
55373;BME280;41249;47.838;16.490;2022-12-20T09:59:33;100511.59;;;-4.37;95.36
55373;BME280;41249;47.838;16.490;2022-12-20T10:02:21;100517.03;;;-4.27;95.22
55373;BME280;41249;47.838;16.490;2022-12-20T10:05:17;100506.72;;;-4.20;95.88
55373;BME280;41249;47.838;16.490;2022-12-20T10:10:58;100496.69;;;-3.99;96.00
55373;BME280;41249;47.838;16.490;2022-12-20T10:16:45;100486.66;;;-3.99;95.74
55373;BME280;41249;47.838;16.490;2022-12-20T10:22:37;100475.53;;;-4.07;95.66
55373;BME280;41249;47.838;16.490;2022-12-20T10:27:45;100461.19;;;-4.23;95.04
55373;BME280;41249;47.838;16.490;2022-12-20T10:30:14;100450.88;;;-4.16;95.79
55373;BME280;41249;47.838;16.490;2022-12-20T10:32:45;100451.16;;;-4.22;95.20
55373;BME280;41249;47.838;16.490;2022-12-20T10:35:38;100453.84;;;-4.32;94.97
55373;BME280;41249;47.838;16.490;2022-12-20T10:38:07;100446.00;;;-4.29;95.38
55373;BME280;41249;47.838;16.490;2022-12-20T10:40:45;100449.25;;;-4.27;94.79
55373;BME280;41249;47.838;16.490;2022-12-20T10:43:43;100443.28;;;-4.19;94.92
55373;BME280;41249;47.838;16.490;2022-12-20T10:46:12;100444.94;;;-4.18;95.47
55373;BME280;41249;47.838;16.490;2022-12-20T10:48:42;100444.66;;;-4.21;94.74
55373;BME280;41249;47.838;16.490;2022-12-20T10:53:56;100441.66;;;-4.40;94.71
55373;BME280;41249;47.838;16.490;2022-12-20T10:56:34;100437.88;;;-4.39;94.99
55373;BME280;41249;47.838;16.490;2022-12-20T11:01:47;100422.97;;;-4.47;94.43
55373;BME280;41249;47.838;16.490;2022-12-20T11:04:34;100421.34;;;-4.38;94.65
55373;BME280;41249;47.838;16.490;2022-12-20T11:07:20;100424.88;;;-4.42;94.16
55373;BME280;41249;47.838;16.490;2022-12-20T11:09:55;100419.97;;;-4.35;94.63
55373;BME280;41249;47.838;16.490;2022-12-20T11:12:22;100415.13;;;-4.43;94.79
55373;BME280;41249;47.838;16.490;2022-12-20T11:15:06;100406.44;;;-4.50;94.39
55373;BME280;41249;47.838;16.490;2022-12-20T11:17:45;100401.84;;;-4.45;94.39
55373;BME280;41249;47.838;16.490;2022-12-20T11:28:37;100396.38;;;-4.19;93.95
55373;BME280;41249;47.838;16.490;2022-12-20T11:31:14;100388.53;;;-4.21;94.32
55373;BME280;41249;47.838;16.490;2022-12-20T11:33:54;100386.38;;;-4.24;94.01
55373;BME280;41249;47.838;16.490;2022-12-20T11:39:12;100377.19;;;-4.33;92.66
55373;BME280;41249;47.838;16.490;2022-12-20T11:41:59;100369.59;;;-4.36;93.19
55373;BME280;41249;47.838;16.490;2022-12-20T11:57:45;100353.59;;;-4.43;93.23
55373;BME280;41249;47.838;16.490;2022-12-20T12:00:37;100350.63;;;-4.61;92.96
55373;BME280;41249;47.838;16.490;2022-12-20T12:03:11;100354.41;;;-4.62;92.47
55373;BME280;41249;47.838;16.490;2022-12-20T12:05:45;100343.34;;;-4.71;92.67
55373;BME280;41249;47.838;16.490;2022-12-20T12:08:18;100334.38;;;-4.71;92.71
55373;BME280;41249;47.838;16.490;2022-12-20T12:11:22;100337.63;;;-4.69;92.25
55373;BME280;41249;47.838;16.490;2022-12-20T12:14:24;100335.22;;;-4.71;92.64
55373;BME280;41249;47.838;16.490;2022-12-20T12:16:56;100333.31;;;-4.70;92.14
55373;BME280;41249;47.838;16.490;2022-12-20T12:19:27;100328.69;;;-4.70;92.67
55373;BME280;41249;47.838;16.490;2022-12-20T12:22:01;100330.84;;;-4.62;92.62
55373;BME280;41249;47.838;16.490;2022-12-20T12:24:34;100319.22;;;-4.67;92.87
55373;BME280;41249;47.838;16.490;2022-12-20T12:27:06;100315.69;;;-4.58;93.21
55373;BME280;41249;47.838;16.490;2022-12-20T12:29:41;100316.47;;;-4.47;92.54
55373;BME280;41249;47.838;16.490;2022-12-20T12:37:52;100304.03;;;-4.48;93.31
55373;BME280;41249;47.838;16.490;2022-12-20T12:40:28;100293.19;;;-4.48;92.44
55373;BME280;41249;47.838;16.490;2022-12-20T12:50:45;100289.13;;;-4.51;92.75
55373;BME280;41249;47.838;16.490;2022-12-20T12:53:29;100289.38;;;-4.57;93.42
55373;BME280;41249;47.838;16.490;2022-12-20T12:55:57;100291.06;;;-4.76;92.97
55373;BME280;41249;47.838;16.490;2022-12-20T13:11:56;100300.25;;;-4.62;92.74
55373;BME280;41249;47.838;16.490;2022-12-20T13:19:53;100296.19;;;-4.75;92.67
55373;BME280;41249;47.838;16.490;2022-12-20T13:22:22;100288.06;;;-4.75;92.16
55373;BME280;41249;47.838;16.490;2022-12-20T13:25:00;100288.34;;;-4.76;92.45
55373;BME280;41249;47.838;16.490;2022-12-20T13:27:35;100294.59;;;-4.81;92.81
55373;BME280;41249;47.838;16.490;2022-12-20T13:40:47;100298.09;;;-4.75;92.52
55373;BME280;41249;47.838;16.490;2022-12-20T13:45:46;100301.03;;;-4.57;93.19
55373;BME280;41249;47.838;16.490;2022-12-20T13:48:20;100291.88;;;-4.66;92.40
55373;BME280;41249;47.838;16.490;2022-12-20T13:50:52;100292.41;;;-4.69;92.84
55373;BME280;41249;47.838;16.490;2022-12-20T13:53:22;100285.34;;;-4.60;93.22
55373;BME280;41249;47.838;16.490;2022-12-20T13:55:50;100288.03;;;-4.55;92.99
55373;BME280;41249;47.838;16.490;2022-12-20T13:58:32;100286.16;;;-4.64;92.28
55373;BME280;41249;47.838;16.490;2022-12-20T14:01:11;100297.53;;;-4.72;92.26
55373;BME280;41249;47.838;16.490;2022-12-20T14:03:44;100294.84;;;-4.77;92.78
55373;BME280;41249;47.838;16.490;2022-12-20T14:06:14;100280.50;;;-4.68;92.85
55373;BME280;41249;47.838;16.490;2022-12-20T14:08:50;100286.16;;;-4.64;93.13
55373;BME280;41249;47.838;16.490;2022-12-20T14:11:24;100271.00;;;-4.70;93.06
55373;BME280;41249;47.838;16.490;2022-12-20T14:13:54;100270.44;;;-4.67;92.68
55373;BME280;41249;47.838;16.490;2022-12-20T14:16:24;100264.78;;;-4.66;92.82
55373;BME280;41249;47.838;16.490;2022-12-20T14:21:23;100273.75;;;-4.80;93.44
55373;BME280;41249;47.838;16.490;2022-12-20T14:23:53;100264.50;;;-4.84;92.85
55373;BME280;41249;47.838;16.490;2022-12-20T14:26:25;100260.19;;;-4.85;93.37
55373;BME280;41249;47.838;16.490;2022-12-20T14:28:57;100257.50;;;-4.80;92.98
55373;BME280;41249;47.838;16.490;2022-12-20T14:31:28;100259.09;;;-4.79;93.11
55373;BME280;41249;47.838;16.490;2022-12-20T14:34:11;100261.81;;;-4.84;93.05
55373;BME280;41249;47.838;16.490;2022-12-20T14:36:44;100261.28;;;-4.81;93.06
55373;BME280;41249;47.838;16.490;2022-12-20T14:39:31;100256.94;;;-4.87;93.09
55373;BME280;41249;47.838;16.490;2022-12-20T14:44:35;100253.16;;;-4.91;93.41